Flight Track Log - Related Links

Times and Time Zones

All times are in EDT time to prevent confusion due to time zone crossing. See the N775NC flight status page for this flight to view local times or setup timezone preferences in your user account.

Time Position Orientation Groundspeed Altitude Reporting Facility
EDT Latitude Longitude Course Direction KTS MPH feet Rate Location/Type
Thu 12:50:09 PM 33.6167 -84.4833 257° West 188 216 2,600  Level Atlanta TRACON
Thu 12:50:43 PM 33.6097 -84.5203 257° West 408 470 3,900 2,234 Climbing Atlanta Center
Thu 12:51:43 PM 33.5800 -84.5922 244° Southwest 341 392 6,100 2,500 Climbing Atlanta Center
Thu 12:52:43 PM 33.5111 -84.6119 193° South 273 314 8,900 2,000 Climbing Atlanta Center
Thu 12:53:43 PM 33.4489 -84.5592 145° Southeast 319 367 10,100 1,650 Climbing Atlanta Center
Thu 12:54:43 PM 33.3803 -84.4767 135° Southeast 358 412 12,200 2,050 Climbing Atlanta Center
Thu 12:55:43 PM 33.3094 -84.3844 133° Southeast 368 423 14,200 2,050 Climbing Atlanta Center
Thu 12:56:43 PM 33.2431 -84.2897 130° Southeast 373 429 16,300 1,950 Climbing Atlanta Center
Thu 12:57:43 PM 33.1783 -84.1803 125° Southeast 393 452 18,100 1,750 Climbing Atlanta Center
Thu 12:58:43 PM 33.1139 -84.0661 124° Southeast 412 474 19,800 1,700 Climbing Atlanta Center
Thu 12:59:43 PM 33.0322 -83.9522 131° Southeast 412 474 21,500 1,500 Climbing Atlanta Center
Thu 01:00:43 PM 32.9531 -83.8656 137° Southeast 412 474 22,800 750 Climbing Atlanta Center
Thu 01:01:43 PM 32.8692 -83.7544 132° Southeast 430 495 23,000 100 Climbing Atlanta Center
Thu 01:02:43 PM 32.8208 -83.6064 111° Southeast 456 525 23,000  Level Atlanta Center
Thu 01:03:42 PM 32.7722 -83.4458 110° East 476 548 23,000  Level Atlanta Center
Thu 01:04:43 PM 32.7275 -83.2906 109° East 492 566 23,000  Level Atlanta Center
Thu 01:05:42 PM 32.6825 -83.1306 108° East 497 572 23,000  Level Atlanta Center
Thu 01:06:43 PM 32.6417 -82.9756 107° East 497 572 23,000  Level Atlanta Center
Thu 01:07:43 PM 32.5961 -82.8061 108° East 504 580 23,000  Level Atlanta Center
Thu 01:08:43 PM 32.5569 -82.6539 107° East 492 566 23,000  Level Atlanta Center
Thu 01:09:43 PM 32.5133 -82.4969 108° East 487 560 23,000 -1,650 Level Atlanta Center
Thu 01:12:03 PM 32.4256 -82.1664 107° East 477 549 17,500 -2,744 Descending Jacksonville Center
Thu 01:13:02 PM 32.3869 -82.0192 107° East 427 491 13,900 -2,950 Descending Jacksonville Center
Thu 01:14:03 PM 32.3528 -81.9064 110° East 419 482 11,600 -1,850 Descending Jacksonville Center
Thu 01:15:02 PM 32.3161 -81.7789 109° East 389 448 10,200 -1,008 Descending Jacksonville Center
Thu 01:16:02 PM 32.2964 -81.6736 102° East 330 380 9,600 -1,091 Descending Jacksonville Center
Thu 01:17:03 PM 32.2786 -81.5803 103° East 307 353 8,000 -1,550 Descending Jacksonville Center
Thu 01:18:02 PM 32.2611 -81.4872 103° East 293 337 6,500 -1,311 Descending Jacksonville Center
Thu 01:19:02 PM 32.2475 -81.4089 102° East 280 322 5,400 -1,438 Descending Jacksonville Center
Thu 01:20:03 PM 32.2300 -81.3281 104° East 261 300 3,600 -1,537 Descending Jacksonville Center
Thu 01:21:03 PM 32.2142 -81.2425 102° East 248 285 2,300 -850 Descending Jacksonville Center
Thu 01:22:03 PM 32.2008 -81.1692 102° East 231 266 1,900 -400 Descending Jacksonville Center

Login

Don't have an account? Register now (free) for customized features, flight alerts, and more!